Stone, Indiana
Current Conditions -  °F | °C
As of 6:09 PM on Tuesday 25 Nov 2014 (Local Time) from KMIE Reporting Station
Overcast Overcast  
Wind Chill: 21°   Ceiling: 1500
Heat Index: 29°   Visibility: 10mi
Dew Point: 23°   Wind: 8mph
Humidity: 78%   Direction: 280°W
Pressure: 30.16"   Gusts: NA
Location:  40.1634°N, 85.045°W
Report Text: KMIE 252309Z 28007KT 10SM OVC015 M02/M05 A3016 RMK AO2 T10171050
Loading
Personal Weather Stations






























Interactive Weather Map New forecast layout! Learn more

10-Day Weather Forecast

Advertisements
Track Severe Weather on mobile